Terminal Aerodrome Forecast
Issued by NWS

Home | Current Version | Previous Version | Graphics & Text | Print | Product List | Glossary On
Versions: 1 2 3 4 5 6 7 8 9 10 11 12 13 14 15 16 17 18 19 20 21 22 23 24 25 26 27 28 29 30 31 32 33
000
FTUS43 KTOP 240500
TAFMHK
TAF
KMHK 240532Z 2406/2506 06005KT P6SM BKN012
     FM240900 13009KT P6SM -SHRA BKN007
     FM241500 16009KT 6SM -SHRA BKN012
     FM242000 19011KT P6SM BKN035
      TEMPO 2421/2501 4SM -TSRA OVC015CB
     FM250200 15005KT P6SM BKN020=

USA.gov is the U.S. government's official web portal to all federal, state and local government web resources and services.